createdAt,value
2023-04-17T00:01:16.684Z,7.40
2023-04-17T00:03:45.050Z,7.10
2023-04-17T00:06:14.237Z,7.40
2023-04-17T00:08:43.658Z,7.40
2023-04-17T00:11:11.834Z,7.90
2023-04-17T00:13:40.127Z,7.90
2023-04-17T00:16:10.878Z,7.30
2023-04-17T00:18:39.383Z,7.90
2023-04-17T00:21:38.145Z,7.20
2023-04-17T00:24:16.648Z,6.90
2023-04-17T00:27:19.803Z,7.30
2023-04-17T00:30:06.239Z,7.10
2023-04-17T00:32:34.754Z,6.60
2023-04-17T00:35:02.985Z,7.00
2023-04-17T00:37:31.097Z,6.80
2023-04-17T00:39:59.291Z,6.50
2023-04-17T00:42:27.916Z,7.60
2023-04-17T00:44:56.296Z,7.80
2023-04-17T00:47:26.525Z,8.20
2023-04-17T00:49:54.793Z,8.20
2023-04-17T00:52:32.488Z,8.10
2023-04-17T00:55:00.878Z,8.70
2023-04-17T00:57:29.356Z,8.20
2023-04-17T00:59:58.453Z,8.10
2023-04-17T01:02:27.048Z,7.60
2023-04-17T01:04:55.958Z,7.80
2023-04-17T01:07:24.328Z,8.10
2023-04-17T01:09:52.376Z,7.80
2023-04-17T01:12:22.177Z,7.30
2023-04-17T01:14:51.732Z,7.80
2023-04-17T01:17:20.673Z,7.40
2023-04-17T01:19:49.678Z,7.80
2023-04-17T01:22:18.505Z,7.60
2023-04-17T01:24:47.546Z,6.90
2023-04-17T01:27:15.784Z,6.80
2023-04-17T01:29:45.536Z,7.30
2023-04-17T01:32:16.635Z,7.30
2023-04-17T01:34:50.674Z,6.60
2023-04-17T01:37:20.395Z,7.10
2023-04-17T01:39:49.803Z,6.70
2023-04-17T01:42:18.180Z,6.90
2023-04-17T01:44:46.678Z,7.20
2023-04-17T01:47:14.934Z,7.10
2023-04-17T01:49:43.333Z,7.10
2023-04-17T01:52:11.587Z,7.20
2023-04-17T01:54:39.965Z,7.50
2023-04-17T01:57:08.139Z,7.00
2023-04-17T01:59:36.310Z,7.60
2023-04-17T02:02:04.783Z,7.40
2023-04-17T02:04:33.148Z,7.60
2023-04-17T02:07:09.773Z,8.20
2023-04-17T02:10:01.918Z,7.80
2023-04-17T02:12:30.150Z,8.30
2023-04-17T02:15:01.305Z,8.60
2023-04-17T02:17:29.822Z,9.30
2023-04-17T02:19:58.161Z,9.20
2023-04-17T02:22:26.328Z,9.30
2023-04-17T02:24:54.606Z,8.80
2023-04-17T02:27:22.811Z,9.60
2023-04-17T02:29:51.569Z,9.50
2023-04-17T02:32:19.865Z,9.60
2023-04-17T02:34:48.513Z,9.30
2023-04-17T02:37:17.599Z,9.70
2023-04-17T02:39:45.845Z,10.10
2023-04-17T02:42:14.687Z,9.80
2023-04-17T02:44:42.860Z,10.40
2023-04-17T02:47:11.264Z,10.30
2023-04-17T02:49:41.902Z,10.40
2023-04-17T02:52:10.260Z,9.70
2023-04-17T02:54:38.325Z,9.70
2023-04-17T02:57:10.414Z,10.00
2023-04-17T02:59:38.628Z,9.80
2023-04-17T03:02:07.352Z,10.20
2023-04-17T03:04:38.864Z,10.60
2023-04-17T03:07:07.344Z,9.80
2023-04-17T03:09:35.558Z,9.70
2023-04-17T03:12:06.015Z,10.20
2023-04-17T03:14:34.175Z,9.60
2023-04-17T03:17:02.437Z,9.20
2023-04-17T03:19:31.014Z,9.70
2023-04-17T03:21:59.100Z,10.10
2023-04-17T03:24:27.569Z,10.30
2023-04-17T03:26:56.464Z,11.20
2023-04-17T03:29:24.616Z,11.00
2023-04-17T03:31:52.958Z,10.50
2023-04-17T03:34:21.947Z,10.10
2023-04-17T03:36:50.654Z,10.60
2023-04-17T03:39:18.769Z,10.20
2023-04-17T03:41:47.248Z,10.50
2023-04-17T03:44:17.454Z,10.30
2023-04-17T03:46:46.150Z,8.80
2023-04-17T03:49:14.656Z,8.60
2023-04-17T03:51:43.005Z,9.20
2023-04-17T03:54:18.655Z,8.60
2023-04-17T03:56:47.875Z,9.20
2023-04-17T03:59:23.600Z,9.10
2023-04-17T04:01:54.333Z,9.00
2023-04-17T04:04:24.979Z,9.00
2023-04-17T04:06:58.462Z,7.70
2023-04-17T04:09:28.071Z,8.50
2023-04-17T04:11:57.569Z,8.20
2023-04-17T04:14:26.050Z,7.40
2023-04-17T04:16:54.428Z,8.10
2023-04-17T04:19:22.609Z,8.70
2023-04-17T04:21:50.979Z,7.90
2023-04-17T04:24:20.393Z,8.00
2023-04-17T04:26:49.836Z,8.00
2023-04-17T04:29:18.597Z,8.30
2023-04-17T04:31:56.212Z,8.10
2023-04-17T04:34:29.818Z,7.80
2023-04-17T04:36:58.354Z,7.60
2023-04-17T04:39:43.242Z,7.90
2023-04-17T04:42:22.117Z,7.40
2023-04-17T04:44:58.513Z,8.20
2023-04-17T04:47:28.679Z,7.80
2023-04-17T04:50:00.021Z,8.20
2023-04-17T04:52:39.697Z,8.00
2023-04-17T04:55:15.520Z,8.50
2023-04-17T04:57:47.917Z,8.30
2023-04-17T05:00:18.197Z,7.90
2023-04-17T05:03:03.221Z,7.40
2023-04-17T05:05:31.906Z,8.00
2023-04-17T05:08:12.835Z,7.80
2023-04-17T05:10:46.658Z,8.60
2023-04-17T05:13:15.737Z,7.90
2023-04-17T05:15:44.145Z,9.30
2023-04-17T05:18:16.014Z,12.90
2023-04-17T05:20:44.436Z,14.10
2023-04-17T05:23:12.915Z,13.80
2023-04-17T05:25:42.189Z,12.90
2023-04-17T05:28:10.585Z,12.60
2023-04-17T05:30:38.822Z,10.90
2023-04-17T05:33:14.404Z,9.40
2023-04-17T05:35:55.409Z,9.10
2023-04-17T05:38:32.428Z,8.40
2023-04-17T05:41:01.926Z,8.80
2023-04-17T05:43:30.534Z,7.90
2023-04-17T05:45:59.047Z,8.30
2023-04-17T05:48:27.271Z,8.80
2023-04-17T05:50:57.953Z,8.40
2023-04-17T05:53:31.244Z,8.40
2023-04-17T05:56:18.834Z,8.00
2023-04-17T06:01:37.037Z,9.50
2023-04-17T06:04:06.130Z,8.60
2023-04-17T06:06:43.603Z,9.70
2023-04-17T06:09:14.901Z,9.80
2023-04-17T06:11:43.700Z,11.40
2023-04-17T06:14:24.053Z,10.30
2023-04-17T06:16:52.220Z,10.50
2023-04-17T06:19:29.480Z,9.70
2023-04-17T06:22:18.113Z,10.40
2023-04-17T06:24:49.404Z,10.20
2023-04-17T06:27:19.998Z,10.20
2023-04-17T06:29:48.479Z,10.60
2023-04-17T06:32:17.124Z,10.30
2023-04-17T06:34:59.147Z,10.60
2023-04-17T06:37:48.058Z,10.90
2023-04-17T06:40:19.694Z,11.40
2023-04-17T06:43:02.162Z,11.40
2023-04-17T06:45:42.372Z,10.90
2023-04-17T06:48:13.658Z,11.30
2023-04-17T06:50:42.497Z,10.70
2023-04-17T06:53:10.653Z,10.50
2023-04-17T06:55:47.171Z,11.00
2023-04-17T06:58:15.489Z,10.70
2023-04-17T07:00:57.050Z,10.40
2023-04-17T07:03:51.456Z,10.30
2023-04-17T07:06:25.468Z,9.90
2023-04-17T07:09:13.213Z,10.20
2023-04-17T07:11:44.970Z,11.10
2023-04-17T07:14:13.493Z,10.20
2023-04-17T07:16:41.664Z,10.50
2023-04-17T07:19:10.000Z,8.90
2023-04-17T07:21:38.343Z,9.30
2023-04-17T07:24:06.926Z,8.50
2023-04-17T07:26:35.532Z,31.60
2023-04-17T07:29:13.221Z,88.60
2023-04-17T07:31:41.808Z,23.70
2023-04-17T07:34:10.026Z,11.70
2023-04-17T07:36:38.344Z,14.70
2023-04-17T07:39:08.155Z,10.90
2023-04-17T07:41:36.370Z,11.30
2023-04-17T07:44:14.739Z,17.90
2023-04-17T07:46:42.911Z,11.60
2023-04-17T07:49:25.921Z,32.90
2023-04-17T07:51:59.926Z,14.30
2023-04-17T07:54:28.043Z,12.30
2023-04-17T07:56:58.406Z,9.90
2023-04-17T07:59:26.743Z,10.00
2023-04-17T08:01:55.200Z,9.10
2023-04-17T08:04:24.689Z,8.50
2023-04-17T08:06:53.130Z,8.10
2023-04-17T08:09:22.669Z,8.70
2023-04-17T08:11:57.526Z,7.90
2023-04-17T08:14:26.819Z,7.00
2023-04-17T08:16:55.746Z,7.40
2023-04-17T08:19:24.164Z,7.10
2023-04-17T08:21:58.287Z,7.10
2023-04-17T08:24:26.501Z,7.50
2023-04-17T08:27:02.504Z,7.50
2023-04-17T08:29:30.804Z,7.00
2023-04-17T08:32:13.303Z,7.00
2023-04-17T08:34:45.573Z,7.10
2023-04-17T08:37:13.872Z,6.20
2023-04-17T08:39:42.177Z,6.40
2023-04-17T08:42:18.505Z,83.10
2023-04-17T08:44:50.874Z,58.30
2023-04-17T08:47:18.991Z,93.70
2023-04-17T08:49:47.556Z,24.60
2023-04-17T08:52:16.922Z,10.20
2023-04-17T08:54:51.394Z,6.80
2023-04-17T08:57:28.745Z,5.50
2023-04-17T09:02:27.623Z,5.50
2023-04-17T09:04:56.458Z,5.20
2023-04-17T09:07:29.807Z,5.20
2023-04-17T09:09:57.989Z,5.20
2023-04-17T09:12:26.336Z,5.10
2023-04-17T09:14:54.480Z,5.50
2023-04-17T09:17:23.274Z,5.20
2023-04-17T09:20:09.431Z,5.60
2023-04-17T09:22:40.500Z,5.10
2023-04-17T09:25:18.543Z,5.20
2023-04-17T09:27:46.917Z,5.30
2023-04-17T09:30:15.498Z,4.90
2023-04-17T09:32:43.950Z,5.50
2023-04-17T09:35:22.010Z,5.10
2023-04-17T09:37:59.428Z,5.20
2023-04-17T09:40:32.422Z,5.30
2023-04-17T09:43:10.790Z,4.70
2023-04-17T09:45:51.227Z,4.90
2023-04-17T09:48:21.786Z,4.50
2023-04-17T09:50:59.055Z,4.50
2023-04-17T09:53:29.493Z,4.60
2023-04-17T09:56:01.931Z,4.70
2023-04-17T09:58:30.747Z,4.70
2023-04-17T10:00:59.011Z,4.00
2023-04-17T10:03:27.982Z,4.70
2023-04-17T10:05:56.529Z,4.40
2023-04-17T10:08:24.615Z,4.70
2023-04-17T10:10:54.104Z,4.10
2023-04-17T10:13:22.248Z,4.70
2023-04-17T10:15:50.614Z,3.70
2023-04-17T10:18:24.466Z,3.70
2023-04-17T10:20:54.029Z,3.90
2023-04-17T10:23:33.062Z,3.90
2023-04-17T10:26:24.729Z,3.40
2023-04-17T10:29:02.073Z,3.50
2023-04-17T10:32:07.948Z,3.40
2023-04-17T10:34:41.762Z,3.70
2023-04-17T10:37:15.659Z,4.00
2023-04-17T10:40:05.866Z,3.90
2023-04-17T10:42:34.298Z,3.70
2023-04-17T10:45:04.915Z,3.40
2023-04-17T10:47:45.660Z,3.70
2023-04-17T10:50:15.273Z,3.70
2023-04-17T10:52:45.605Z,3.60
2023-04-17T10:55:23.751Z,3.50
2023-04-17T10:58:02.486Z,3.10
2023-04-17T11:00:37.537Z,3.00
2023-04-17T11:03:06.581Z,3.20
2023-04-17T11:05:36.026Z,3.00
2023-04-17T11:08:04.352Z,3.00
2023-04-17T11:10:35.812Z,2.70
2023-04-17T11:13:03.859Z,2.40
2023-04-17T11:15:34.490Z,3.00
2023-04-17T11:18:03.453Z,2.70
2023-04-17T11:20:32.968Z,3.10
2023-04-17T11:23:02.297Z,3.30
2023-04-17T11:25:31.705Z,3.30
2023-04-17T11:28:05.459Z,2.80
2023-04-17T11:30:35.635Z,2.70
2023-04-17T11:33:07.321Z,2.80
2023-04-17T11:35:37.524Z,2.70
2023-04-17T11:38:21.616Z,2.30
2023-04-17T11:40:56.188Z,2.30
2023-04-17T11:43:26.523Z,2.30
2023-04-17T11:45:56.510Z,2.20
2023-04-17T11:48:26.510Z,2.50
2023-04-17T11:51:02.070Z,2.00
2023-04-17T11:53:33.348Z,2.00
2023-04-17T11:56:14.711Z,1.90
2023-04-17T11:58:47.398Z,2.00
2023-04-17T12:01:19.041Z,2.10
2023-04-17T12:03:50.197Z,1.40
2023-04-17T12:06:21.840Z,1.70
2023-04-17T12:08:56.326Z,1.70
2023-04-17T12:11:31.343Z,1.70
2023-04-17T12:21:02.233Z,1.90
2023-04-17T12:30:13.682Z,1.30
2023-04-17T12:33:51.253Z,1.50
2023-04-17T12:52:15.025Z,1.60
2023-04-17T12:58:23.010Z,1.60
2023-04-17T13:35:15.890Z,2.20
2023-04-17T13:38:43.818Z,1.60
2023-04-17T13:42:35.125Z,1.50
2023-04-17T13:48:23.368Z,1.30
2023-04-17T13:49:28.432Z,1.30
2023-04-17T13:52:44.786Z,1.30
2023-04-17T13:56:04.928Z,1.40
2023-04-17T13:58:30.993Z,1.60
2023-04-17T14:00:58.957Z,1.50
2023-04-17T14:03:27.663Z,1.40
2023-04-17T14:05:56.820Z,1.40
2023-04-17T14:08:24.979Z,1.10
2023-04-17T14:10:53.206Z,1.30
2023-04-17T14:13:21.492Z,1.80
2023-04-17T14:15:52.785Z,2.50
2023-04-17T14:18:21.416Z,1.90
2023-04-17T14:20:55.620Z,2.10
2023-04-17T14:23:23.810Z,2.40
2023-04-17T14:25:51.929Z,2.50
2023-04-17T14:28:21.296Z,2.30
2023-04-17T14:30:50.486Z,2.60
2023-04-17T14:33:18.808Z,2.60
2023-04-17T14:35:46.912Z,2.40
2023-04-17T14:38:15.019Z,2.20
2023-04-17T14:40:52.070Z,1.80
2023-04-17T14:43:20.306Z,1.90
2023-04-17T14:45:48.407Z,2.00
2023-04-17T14:48:16.707Z,2.30
2023-04-17T14:50:44.946Z,2.20
2023-04-17T14:53:13.074Z,2.20
2023-04-17T14:55:53.040Z,2.50
2023-04-17T14:58:21.246Z,2.30
2023-04-17T15:00:58.601Z,1.90
2023-04-17T15:03:36.147Z,2.30
2023-04-17T15:06:14.841Z,1.80
2023-04-17T15:08:53.689Z,1.90
2023-04-17T15:11:44.056Z,1.60
2023-04-17T15:14:29.389Z,1.70
2023-04-17T15:17:20.078Z,1.40
2023-04-17T15:20:10.960Z,1.60
2023-04-17T15:22:52.627Z,1.90
2023-04-17T15:28:23.586Z,2.60
2023-04-17T15:30:57.615Z,2.60
2023-04-17T15:34:25.289Z,2.70
2023-04-17T15:36:57.319Z,3.00
2023-04-17T15:39:25.383Z,2.90
2023-04-17T15:46:52.886Z,2.50
2023-04-17T15:50:21.892Z,2.30
2023-04-17T16:07:27.952Z,2.70
2023-04-17T16:09:56.158Z,2.90
2023-04-17T16:12:28.221Z,3.30
2023-04-17T16:14:56.570Z,3.30
2023-04-17T16:17:24.868Z,3.30
2023-04-17T16:19:53.596Z,3.40
2023-04-17T16:22:21.766Z,3.60
2023-04-17T16:24:49.970Z,4.10
2023-04-17T16:27:18.118Z,3.40
2023-04-17T16:29:46.354Z,3.50
2023-04-17T16:32:16.065Z,3.80
2023-04-17T16:34:44.232Z,3.90
2023-04-17T16:37:12.603Z,4.20
2023-04-17T16:39:41.407Z,3.70
2023-04-17T16:42:09.671Z,4.00
2023-04-17T16:44:49.816Z,5.10
2023-04-17T16:47:18.188Z,4.60
2023-04-17T16:49:49.872Z,5.20
2023-04-17T16:52:18.174Z,5.40
2023-04-17T16:54:46.316Z,6.40
2023-04-17T16:57:14.503Z,6.00
2023-04-17T16:59:42.688Z,5.90
2023-04-17T17:02:11.079Z,6.00
2023-04-17T17:04:39.335Z,5.90
2023-04-17T17:07:07.434Z,5.60
2023-04-17T17:09:35.594Z,4.40
2023-04-17T17:12:06.801Z,4.70
2023-04-17T17:14:34.948Z,5.40
2023-04-17T17:17:03.151Z,6.10
2023-04-17T17:19:31.415Z,5.90
2023-04-17T17:21:59.556Z,6.80
2023-04-17T17:24:27.865Z,7.30
2023-04-17T17:26:57.297Z,7.30
2023-04-17T17:29:25.469Z,8.20
2023-04-17T17:31:53.572Z,7.40
2023-04-17T17:34:26.694Z,7.80
2023-04-17T17:36:55.691Z,6.50
2023-04-17T17:39:23.864Z,6.80
2023-04-17T17:41:52.225Z,6.10
2023-04-17T17:44:38.696Z,6.80
2023-04-17T17:47:16.245Z,6.30
2023-04-17T17:50:11.610Z,6.00
2023-04-17T17:52:39.785Z,5.90
2023-04-17T17:55:15.497Z,6.40
2023-04-17T17:58:00.984Z,6.50
2023-04-17T18:00:55.303Z,7.10
2023-04-17T18:03:23.624Z,6.50
2023-04-17T18:05:52.804Z,5.80
2023-04-17T18:08:21.215Z,6.30
2023-04-17T18:10:54.833Z,6.10
2023-04-17T18:13:31.785Z,7.10
2023-04-17T18:18:33.980Z,7.60
2023-04-17T18:21:27.075Z,8.30
2023-04-17T18:23:56.456Z,9.90
2023-04-17T18:26:25.014Z,9.90
2023-04-17T18:28:56.216Z,10.30
2023-04-17T18:31:26.179Z,12.30
2023-04-17T18:33:56.757Z,12.70
2023-04-17T18:36:32.435Z,11.80
2023-04-17T18:39:04.033Z,12.50
2023-04-17T18:41:35.135Z,12.50
2023-04-17T18:44:06.280Z,14.80
2023-04-17T18:46:34.653Z,13.10
2023-04-17T18:49:03.413Z,12.70
2023-04-17T18:51:31.920Z,12.20
2023-04-17T18:54:00.067Z,11.20
2023-04-17T18:56:28.396Z,11.80
2023-04-17T18:58:56.901Z,10.70
2023-04-17T19:01:27.792Z,8.90
2023-04-17T19:04:07.967Z,7.90
2023-04-17T19:06:36.395Z,7.80
2023-04-17T19:09:10.760Z,6.50
2023-04-17T19:11:42.558Z,7.60
2023-04-17T19:14:13.750Z,8.00
2023-04-17T19:16:43.166Z,6.70
2023-04-17T19:19:13.862Z,5.50
2023-04-17T19:21:44.962Z,5.40
2023-04-17T19:24:13.199Z,4.90
2023-04-17T19:26:41.779Z,4.90
2023-04-17T19:29:10.202Z,4.70
2023-04-17T19:31:38.890Z,4.30
2023-04-17T19:34:08.658Z,4.30
2023-04-17T19:36:42.602Z,4.50
2023-04-17T19:39:13.750Z,4.30
2023-04-17T19:42:04.526Z,4.40
2023-04-17T19:44:33.154Z,4.90
2023-04-17T19:47:01.673Z,3.90
2023-04-17T19:49:31.472Z,4.20
2023-04-17T19:52:03.102Z,3.90
2023-04-17T19:54:34.385Z,3.70
2023-04-17T19:57:06.152Z,4.00
2023-04-17T19:59:34.622Z,3.90
2023-04-17T20:02:05.693Z,3.90
2023-04-17T20:04:34.036Z,3.30
2023-04-17T20:07:08.411Z,3.10
2023-04-17T20:09:36.727Z,2.80
2023-04-17T20:12:05.749Z,2.60
2023-04-17T20:14:34.112Z,2.00
2023-04-17T20:17:09.583Z,2.30
2023-04-17T20:19:37.986Z,2.00
2023-04-17T20:22:09.390Z,1.90
2023-04-17T20:24:37.558Z,1.50
2023-04-17T20:27:14.644Z,1.80
2023-04-17T20:29:45.376Z,1.80
2023-04-17T20:32:24.639Z,2.00
2023-04-17T20:34:56.371Z,1.80
2023-04-17T20:37:47.794Z,1.90
2023-04-17T20:40:16.367Z,2.10
2023-04-17T20:42:44.721Z,1.80
2023-04-17T20:45:14.167Z,2.00
2023-04-17T20:47:55.363Z,2.00
2023-04-17T20:50:25.501Z,2.00
2023-04-17T20:52:53.721Z,2.00
2023-04-17T20:55:24.329Z,1.90
2023-04-17T20:57:52.868Z,2.10
2023-04-17T21:00:21.524Z,1.90
2023-04-17T21:02:49.975Z,2.10
2023-04-17T21:05:19.434Z,2.20
2023-04-17T21:07:49.568Z,2.30
2023-04-17T21:10:20.246Z,2.50
2023-04-17T21:12:48.448Z,2.10
2023-04-17T21:15:16.443Z,2.50
2023-04-17T21:17:47.868Z,2.50
2023-04-17T21:20:25.141Z,2.50
2023-04-17T21:25:29.019Z,2.10
2023-04-17T21:27:57.250Z,2.40
2023-04-17T21:30:27.331Z,2.30
2023-04-17T21:32:56.236Z,2.40
2023-04-17T21:35:45.197Z,2.30
2023-04-17T21:38:13.522Z,2.30
2023-04-17T21:40:51.117Z,2.40
2023-04-17T21:43:22.337Z,2.40
2023-04-17T21:45:51.041Z,2.40
2023-04-17T21:48:19.118Z,2.70
2023-04-17T21:50:47.510Z,2.30
2023-04-17T21:53:15.637Z,2.50
2023-04-17T21:55:43.799Z,2.80
2023-04-17T21:58:12.217Z,2.40
2023-04-17T22:00:40.358Z,2.60
2023-04-17T22:03:08.438Z,2.10
2023-04-17T22:05:36.823Z,2.30
2023-04-17T22:08:04.915Z,2.40
2023-04-17T22:10:32.953Z,2.50
2023-04-17T22:13:01.220Z,2.70
2023-04-17T22:15:29.303Z,2.50
2023-04-17T22:17:59.148Z,2.80
2023-04-17T22:20:27.592Z,2.80
2023-04-17T22:22:55.961Z,2.80
2023-04-17T22:25:24.103Z,2.40
2023-04-17T22:27:52.206Z,2.90
2023-04-17T22:30:20.441Z,2.50
2023-04-17T22:32:48.794Z,2.80
2023-04-17T22:35:17.339Z,2.40
2023-04-17T22:37:45.512Z,2.60
2023-04-17T22:40:14.123Z,2.60
2023-04-17T22:42:42.484Z,2.50
2023-04-17T22:45:10.769Z,2.40
2023-04-17T22:47:38.859Z,2.50
2023-04-17T22:50:08.418Z,2.80
2023-04-17T22:52:36.608Z,2.80
2023-04-17T22:55:06.399Z,2.70
2023-04-17T22:57:34.904Z,2.70
2023-04-17T23:00:03.922Z,3.30
2023-04-17T23:02:32.220Z,2.80
2023-04-17T23:05:00.460Z,2.80
2023-04-17T23:07:28.916Z,3.00
2023-04-17T23:09:57.176Z,3.30
2023-04-17T23:12:25.262Z,2.90
2023-04-17T23:14:53.410Z,2.60
2023-04-17T23:17:21.472Z,3.10
2023-04-17T23:19:49.883Z,3.20
2023-04-17T23:22:18.132Z,3.40
2023-04-17T23:24:46.315Z,2.90
2023-04-17T23:27:14.554Z,3.10
2023-04-17T23:29:42.569Z,2.80
2023-04-17T23:32:10.763Z,2.80
2023-04-17T23:34:39.175Z,2.80
2023-04-17T23:37:07.281Z,2.90
2023-04-17T23:39:35.600Z,3.00
2023-04-17T23:42:07.407Z,2.90
2023-04-17T23:44:35.736Z,2.50
2023-04-17T23:47:04.104Z,2.60
2023-04-17T23:49:33.709Z,2.80
2023-04-17T23:52:02.507Z,2.90
2023-04-17T23:54:30.892Z,3.10
2023-04-17T23:56:59.106Z,2.60
2023-04-17T23:59:27.267Z,3.20
